Kaluga, Russia
Current Conditions -  °F | °C
As of 12:30 PM on Monday 22 Dec 2014 (Local Time) from UUMO Reporting Station
Light Snow Light Snow  
Wind Chill: 19°   Ceiling: 2300
Heat Index: 30°   Visibility: 6mi
Dew Point: 23°   Wind: 16mph
Humidity: 75%   Direction: 260°W
Pressure: 29.53"   Gusts: NA
Location:  54.54°N, 36.27°E
Report Text: UUMO 220930Z 26007MPS 9999 -SN BKN023 M01/M05 Q1000 NOSIG RMKQFE735/0980 26810345
Loading
Personal Weather Stations






























Interactive Weather Map New forecast layout! Learn more

10-Day Weather Forecast

Advertisements
Track Severe Weather on mobile